Ben Bolt, Texas
Current Conditions -  °F | °C
As of 5:53 AM on Monday 24 Nov 2014 (Local Time) from KALI Reporting Station
Clear Clear  
Wind Chill: 13°   Ceiling: Unl
Heat Index: 13°   Visibility: 10mi
Dew Point:   Wind: 12mph
Humidity: 60%   Direction: 360°N
Pressure: 29.94"   Gusts: NA
Location:  27.65°N, 98.08°W
Report Text: KALI 241153Z AUTO 36010KT 10SM CLR 13/06 A2994 RMK AO2 SLP136 T01330056 10172 20133 53034
Loading
Personal Weather Stations






























Interactive Weather Map New forecast layout! Learn more

10-Day Weather Forecast

Advertisements
Track Severe Weather on mobile